Time;durP1;ratioP1;P1;durP2;ratioP2;P2;SDS_P1;SDS_P2;PMS_P1;PMS_P2;Temp;Humidity;BMP_temperature;BMP_pressure;BME280_temperature;BME280_humidity;BME280_pressure;Samples;Min_cycle;Max_cycle;Signal;HPM_P1;HPM_P2
2023/11/14 00:00:08;;;;;;;16.75;3.45;;;9.80;99.90;;;;;;5027985;28;20182;-82
2023/11/14 00:02:34;;;;;;;20.35;3.67;;;9.90;99.90;;;;;;5033295;28;20519;-80
2023/11/14 00:05:01;;;;;;;18.08;4.00;;;9.90;99.90;;;;;;5033218;28;20225;-87
2023/11/14 00:07:26;;;;;;;22.00;3.25;;;9.90;99.90;;;;;;5033186;28;20257;-78
2023/11/14 00:09:52;;;;;;;18.08;3.70;;;9.90;99.90;;;;;;5032127;28;20320;-80
2023/11/14 00:12:20;;;;;;;20.48;3.83;;;10.00;99.90;;;;;;5033446;28;20261;-80
2023/11/14 00:14:47;;;;;;;26.38;4.10;;;9.90;99.90;;;;;;5033300;28;20252;-80
2023/11/14 00:17:13;;;;;;;20.23;3.47;;;9.90;99.90;;;;;;5035048;28;20244;-82
2023/11/14 00:19:40;;;;;;;23.98;5.03;;;9.90;99.90;;;;;;5019926;28;20682;-82
2023/11/14 00:22:10;;;;;;;28.65;4.18;;;9.90;99.90;;;;;;5037368;28;20208;-80
2023/11/14 00:24:36;;;;;;;16.77;4.05;;;9.90;99.90;;;;;;5035804;28;20268;-79
2023/11/14 00:27:03;;;;;;;26.77;4.65;;;9.90;99.90;;;;;;5030413;28;20187;-80
2023/11/14 00:29:28;;;;;;;16.92;4.15;;;9.90;99.90;;;;;;5034754;28;20182;-80
2023/11/14 00:31:54;;;;;;;20.38;3.95;;;9.90;99.90;;;;;;5037123;28;20200;-78
2023/11/14 00:34:23;;;;;;;23.85;4.43;;;10.00;99.90;;;;;;5037210;28;20185;-81
2023/11/14 00:36:50;;;;;;;22.65;3.75;;;10.00;99.90;;;;;;5037206;28;20182;-80
2023/11/14 00:39:16;;;;;;;18.92;3.85;;;10.00;99.90;;;;;;5036009;28;20186;-79
2023/11/14 00:41:47;;;;;;;21.65;4.03;;;10.00;99.90;;;;;;5035809;28;20212;-81
2023/11/14 00:44:16;;;;;;;23.83;4.03;;;10.00;99.90;;;;;;5035640;28;20264;-79
2023/11/14 00:46:49;;;;;;;19.77;4.15;;;10.00;99.90;;;;;;5036403;28;20183;-94
2023/11/14 00:49:14;;;;;;;21.80;4.38;;;10.00;99.90;;;;;;5035636;28;20187;-92
2023/11/14 00:51:40;;;;;;;26.02;3.85;;;10.00;99.90;;;;;;5036618;28;20572;-82
2023/11/14 00:54:06;;;;;;;20.67;3.92;;;9.90;99.90;;;;;;5036496;28;20262;-81
2023/11/14 00:56:32;;;;;;;16.95;4.03;;;10.00;99.90;;;;;;5035384;28;20254;-81
2023/11/14 00:58:57;;;;;;;21.42;4.25;;;10.00;99.90;;;;;;5035536;28;20280;-79
2023/11/14 01:01:23;;;;;;;16.38;3.65;;;10.10;99.90;;;;;;5036429;28;20295;-79
2023/11/14 01:03:49;;;;;;;22.60;3.67;;;10.10;99.90;;;;;;5036685;28;20186;-80
2023/11/14 01:06:14;;;;;;;23.02;4.03;;;10.10;99.90;;;;;;5035172;28;20194;-80
2023/11/14 01:08:40;;;;;;;25.85;3.47;;;10.20;99.90;;;;;;5027191;28;20201;-79
2023/11/14 01:11:06;;;;;;;28.45;4.38;;;10.20;99.90;;;;;;5036765;28;20186;-79
2023/11/14 01:13:32;;;;;;;28.98;3.95;;;10.20;99.90;;;;;;5036029;28;20186;-79
2023/11/14 01:15:57;;;;;;;15.52;3.33;;;10.20;99.90;;;;;;5035946;28;20187;-80
2023/11/14 01:18:23;;;;;;;29.63;4.80;;;10.20;99.90;;;;;;5034408;28;20253;-79
2023/11/14 01:20:49;;;;;;;23.25;4.07;;;10.30;99.90;;;;;;5036436;28;20182;-84
2023/11/14 01:23:16;;;;;;;22.83;3.80;;;10.30;99.90;;;;;;5035508;28;20186;-82
2023/11/14 01:25:43;;;;;;;18.50;3.85;;;10.30;99.90;;;;;;5033779;28;20214;-86
2023/11/14 01:28:10;;;;;;;23.75;4.88;;;10.40;99.90;;;;;;5027470;28;20178;-91
2023/11/14 01:30:35;;;;;;;25.30;4.00;;;10.40;99.90;;;;;;5035052;28;21013;-81
2023/11/14 01:33:01;;;;;;;25.10;4.30;;;10.40;99.90;;;;;;5036723;28;20257;-80
2023/11/14 01:35:27;;;;;;;23.77;4.88;;;10.40;99.90;;;;;;5035586;28;20188;-80
2023/11/14 01:37:53;;;;;;;25.75;4.47;;;10.40;99.90;;;;;;5036602;28;20258;-81
2023/11/14 01:40:18;;;;;;;20.15;3.97;;;10.40;99.90;;;;;;5027240;28;20679;-80
2023/11/14 01:42:44;;;;;;;20.50;4.15;;;10.50;99.90;;;;;;5036230;28;20185;-80
2023/11/14 01:45:10;;;;;;;23.15;4.15;;;10.50;99.90;;;;;;5036045;28;20214;-81
2023/11/14 01:47:36;;;;;;;23.40;3.97;;;10.50;99.90;;;;;;5036298;28;20187;-80
2023/11/14 01:50:02;;;;;;;23.42;4.43;;;10.60;99.90;;;;;;5030832;28;20248;-80
2023/11/14 01:52:29;;;;;;;27.35;4.28;;;10.60;99.90;;;;;;5033835;28;20182;-79
2023/11/14 01:54:55;;;;;;;20.50;4.70;;;10.60;99.90;;;;;;5034797;28;20194;-80
2023/11/14 01:57:21;;;;;;;22.75;4.47;;;10.60;99.90;;;;;;5036144;28;20262;-80
2023/11/14 01:59:48;;;;;;;21.25;3.75;;;10.60;99.90;;;;;;5018895;28;20237;-79
2023/11/14 02:02:15;;;;;;;22.42;4.32;;;10.60;99.90;;;;;;5024551;28;20759;-94
2023/11/14 02:04:42;;;;;;;22.42;4.35;;;10.60;99.90;;;;;;5035026;28;20258;-91
2023/11/14 02:07:15;;;;;;;17.73;4.18;;;10.60;99.90;;;;;;5035584;28;20217;-91
2023/11/14 02:09:41;;;;;;;25.17;4.55;;;10.60;99.90;;;;;;5035627;28;20186;-92
2023/11/14 02:12:07;;;;;;;22.35;3.80;;;10.70;99.90;;;;;;5035608;28;20179;-94
2023/11/14 02:14:33;;;;;;;21.70;3.55;;;10.70;99.90;;;;;;5032580;28;20209;-80
2023/11/14 02:16:59;;;;;;;23.27;3.75;;;10.70;99.90;;;;;;5028774;28;20217;-79
2023/11/14 02:19:25;;;;;;;20.73;4.00;;;10.70;99.90;;;;;;5035505;28;20644;-83
2023/11/14 02:24:28;;;;;;;18.15;3.75;;;10.80;99.90;;;;;;5321217;22;20252;-82
2023/11/14 02:26:54;;;;;;;22.75;4.55;;;10.80;99.90;;;;;;5074600;28;20169;-81
2023/11/14 02:29:22;;;;;;;21.15;4.15;;;10.80;99.90;;;;;;5073414;28;20184;-80
2023/11/14 02:31:49;;;;;;;24.27;4.18;;;10.80;99.90;;;;;;5073441;28;20195;-83
2023/11/14 02:34:15;;;;;;;22.33;3.85;;;10.80;99.90;;;;;;5073467;28;20181;-81
2023/11/14 02:36:41;;;;;;;24.42;4.30;;;10.80;99.90;;;;;;5073193;28;21731;-82
2023/11/14 02:39:07;;;;;;;23.50;4.22;;;10.80;99.90;;;;;;5072871;28;20212;-80
2023/11/14 02:41:35;;;;;;;23.92;4.38;;;10.90;99.90;;;;;;5064872;28;20174;-83
2023/11/14 02:44:01;;;;;;;18.15;4.15;;;11.00;99.90;;;;;;5073031;28;20638;-83
2023/11/14 02:46:27;;;;;;;17.83;4.15;;;11.00;99.90;;;;;;5074388;28;20173;-84
2023/11/14 02:48:53;;;;;;;23.17;4.38;;;10.90;99.90;;;;;;5074411;28;20177;-82
2023/11/14 02:51:19;;;;;;;18.85;3.53;;;10.90;99.90;;;;;;5074390;28;20181;-84
2023/11/14 02:53:45;;;;;;;19.80;3.83;;;10.90;99.90;;;;;;5073539;28;20541;-83
2023/11/14 02:56:10;;;;;;;23.40;3.90;;;11.00;99.90;;;;;;5064718;28;20177;-84
2023/11/14 02:58:36;;;;;;;21.15;3.50;;;10.90;99.90;;;;;;5072555;28;20185;-83
2023/11/14 03:01:03;;;;;;;17.65;3.80;;;10.90;99.90;;;;;;5074339;28;20177;-83
2023/11/14 03:03:29;;;;;;;14.70;3.33;;;10.90;99.90;;;;;;5073464;28;20180;-83
2023/11/14 03:05:59;;;;;;;19.02;4.00;;;10.90;99.90;;;;;;5073878;28;20555;-83
2023/11/14 03:08:25;;;;;;;20.00;3.70;;;10.90;99.90;;;;;;5073555;28;20165;-81
2023/11/14 03:10:51;;;;;;;20.95;4.07;;;10.90;99.90;;;;;;5068575;28;20186;-84
2023/11/14 03:13:18;;;;;;;20.00;3.90;;;11.00;99.90;;;;;;5069982;28;20925;-82
2023/11/14 03:15:43;;;;;;;20.85;4.00;;;11.10;99.90;;;;;;5073800;28;20173;-83
2023/11/14 03:18:09;;;;;;;15.75;3.80;;;10.90;99.90;;;;;;5072500;28;20188;-83
2023/11/14 03:20:35;;;;;;;18.45;3.90;;;10.90;99.90;;;;;;5073693;28;20588;-83
2023/11/14 03:23:01;;;;;;;24.42;4.50;;;10.90;99.90;;;;;;5073554;28;21341;-81
2023/11/14 03:25:27;;;;;;;19.00;3.95;;;10.90;99.90;;;;;;5071980;28;20217;-83
2023/11/14 03:27:53;;;;;;;17.92;3.75;;;10.90;99.90;;;;;;5072426;28;20192;-82
2023/11/14 03:30:19;;;;;;;28.65;4.32;;;10.90;99.90;;;;;;5058066;28;20183;-82
2023/11/14 03:32:45;;;;;;;22.70;4.57;;;10.90;99.90;;;;;;5071957;28;20193;-82
2023/11/14 03:35:11;;;;;;;23.10;3.85;;;10.80;99.90;;;;;;5073545;28;20188;-82
2023/11/14 03:37:37;;;;;;;21.80;3.78;;;10.80;99.90;;;;;;5072009;28;20181;-82
2023/11/14 03:40:06;;;;;;;20.73;4.30;;;10.90;99.90;;;;;;5073312;28;20185;-83
2023/11/14 03:42:33;;;;;;;25.27;4.63;;;11.00;99.90;;;;;;5065385;28;20200;-83
2023/11/14 03:44:59;;;;;;;24.00;4.10;;;11.00;99.90;;;;;;5073420;28;20288;-83
2023/11/14 03:47:25;;;;;;;24.33;4.30;;;10.90;99.90;;;;;;5073300;28;20230;-81
2023/11/14 03:49:51;;;;;;;24.20;4.65;;;10.90;99.90;;;;;;5073391;28;20177;-82
2023/11/14 03:52:17;;;;;;;20.58;4.07;;;10.80;99.90;;;;;;5073058;28;20165;-81
2023/11/14 03:54:42;;;;;;;21.63;3.95;;;10.90;99.90;;;;;;5071538;28;20289;-81
2023/11/14 03:57:08;;;;;;;21.08;4.10;;;10.90;99.90;;;;;;5072909;28;20208;-80
2023/11/14 03:59:34;;;;;;;22.00;4.50;;;10.90;99.90;;;;;;5072099;28;20226;-80
2023/11/14 04:02:00;;;;;;;23.65;4.72;;;10.90;99.90;;;;;;5065057;28;20261;-82
2023/11/14 04:04:25;;;;;;;23.65;4.88;;;10.90;99.90;;;;;;5072976;28;20639;-81
2023/11/14 04:06:51;;;;;;;23.42;4.63;;;10.80;99.90;;;;;;5073184;28;20211;-82
2023/11/14 04:09:17;;;;;;;22.67;4.07;;;10.80;99.90;;;;;;5071585;28;20223;-80
2023/11/14 04:11:48;;;;;;;22.70;3.70;;;10.80;99.90;;;;;;5065120;28;20191;-82
2023/11/14 04:14:14;;;;;;;23.30;4.28;;;10.80;99.90;;;;;;5073170;28;20173;-83
2023/11/14 04:16:40;;;;;;;19.40;3.53;;;10.80;99.90;;;;;;5071681;28;20181;-81
2023/11/14 04:19:05;;;;;;;17.60;3.58;;;10.70;99.90;;;;;;5073249;28;20181;-79
2023/11/14 04:21:31;;;;;;;22.60;3.85;;;10.70;99.90;;;;;;5073094;28;20181;-82
2023/11/14 04:23:57;;;;;;;28.23;4.53;;;10.60;99.90;;;;;;5072100;28;20306;-81
2023/11/14 04:26:23;;;;;;;18.30;4.05;;;10.60;99.90;;;;;;5073093;28;20185;-82
2023/11/14 04:28:49;;;;;;;23.02;4.25;;;10.60;99.90;;;;;;5071764;28;20173;-83
2023/11/14 04:31:16;;;;;;;17.02;4.13;;;10.60;99.90;;;;;;5071854;28;20503;-84
2023/11/14 04:33:42;;;;;;;18.23;3.75;;;10.60;99.90;;;;;;5064791;28;20256;-83
2023/11/14 04:36:09;;;;;;;20.95;4.45;;;10.60;99.90;;;;;;5058969;28;20530;-84
2023/11/14 04:38:35;;;;;;;22.85;4.13;;;10.70;99.90;;;;;;5069408;28;20268;-83
2023/11/14 04:41:02;;;;;;;23.17;4.25;;;10.80;99.90;;;;;;5073189;28;20260;-82
2023/11/14 04:43:27;;;;;;;20.10;3.97;;;10.80;99.90;;;;;;5071583;28;20192;-83
2023/11/14 04:45:53;;;;;;;22.02;4.13;;;10.80;99.90;;;;;;5071383;28;20209;-83
2023/11/14 04:48:19;;;;;;;17.40;3.78;;;10.70;99.90;;;;;;5070724;28;20183;-83
2023/11/14 04:50:45;;;;;;;21.13;4.15;;;10.70;99.90;;;;;;5072814;28;20620;-83
2023/11/14 04:53:11;;;;;;;22.40;3.95;;;10.70;99.90;;;;;;5071463;28;20181;-83
2023/11/14 04:55:36;;;;;;;16.80;3.60;;;10.60;99.90;;;;;;5072571;28;20173;-84
2023/11/14 04:58:02;;;;;;;16.60;3.63;;;10.50;99.90;;;;;;5069270;28;20627;-83
2023/11/14 05:00:29;;;;;;;18.63;3.67;;;10.50;99.90;;;;;;5072705;28;20193;-82
2023/11/14 05:02:55;;;;;;;24.98;3.97;;;10.50;99.90;;;;;;5072989;28;20189;-83
2023/11/14 05:05:20;;;;;;;19.80;3.80;;;10.50;99.90;;;;;;5075890;28;20224;-83
2023/11/14 05:07:47;;;;;;;20.65;4.15;;;10.60;99.90;;;;;;5075837;28;20623;-83
2023/11/14 05:10:13;;;;;;;20.63;3.53;;;10.60;99.90;;;;;;5076188;28;20635;-82
2023/11/14 05:12:39;;;;;;;18.42;3.60;;;10.60;99.90;;;;;;5076209;28;20173;-83
2023/11/14 05:15:09;;;;;;;21.55;4.43;;;10.60;99.90;;;;;;5074897;28;20185;-79
2023/11/14 05:17:35;;;;;;;21.05;4.20;;;10.60;99.90;;;;;;5075803;28;20177;-82
2023/11/14 05:20:01;;;;;;;21.23;3.90;;;10.60;99.90;;;;;;5075985;28;20184;-82
2023/11/14 05:22:27;;;;;;;17.70;4.25;;;10.60;99.90;;;;;;5059775;28;20182;-82
2023/11/14 05:24:53;;;;;;;23.38;4.18;;;10.50;99.90;;;;;;5069511;28;20256;-80
2023/11/14 05:27:20;;;;;;;22.33;4.03;;;10.50;99.90;;;;;;5074490;28;20262;-81
2023/11/14 05:29:45;;;;;;;24.20;4.70;;;10.60;99.90;;;;;;5075876;28;20173;-83
2023/11/14 05:32:11;;;;;;;22.92;4.10;;;10.60;99.90;;;;;;5061162;28;20577;-83
2023/11/14 05:34:37;;;;;;;22.50;4.00;;;10.60;99.90;;;;;;5073549;28;20279;-82
2023/11/14 05:37:08;;;;;;;22.80;4.10;;;10.60;99.90;;;;;;5069579;28;20243;-82
2023/11/14 05:39:33;;;;;;;19.48;4.10;;;10.60;99.90;;;;;;5075292;28;20608;-82
2023/11/14 05:41:59;;;;;;;18.40;3.58;;;10.60;99.90;;;;;;5070817;28;20196;-82
2023/11/14 05:44:25;;;;;;;22.80;3.83;;;10.60;99.90;;;;;;5074158;28;20211;-82
2023/11/14 05:46:51;;;;;;;20.85;4.45;;;10.60;99.90;;;;;;5075469;28;20186;-81
2023/11/14 05:49:16;;;;;;;15.80;3.17;;;10.60;99.90;;;;;;5074361;28;20180;-82
2023/11/14 05:51:42;;;;;;;16.65;3.83;;;10.60;99.90;;;;;;5074110;28;20197;-84
2023/11/14 05:54:08;;;;;;;22.40;4.40;;;10.60;99.90;;;;;;5075220;28;20185;-81
2023/11/14 05:56:34;;;;;;;22.13;4.05;;;10.70;99.90;;;;;;5075412;28;20174;-82
2023/11/14 05:59:00;;;;;;;20.05;3.95;;;10.70;99.90;;;;;;5074031;28;20173;-82
2023/11/14 06:01:25;;;;;;;22.25;4.05;;;10.70;99.90;;;;;;5075098;28;20243;-82
2023/11/14 06:03:51;;;;;;;19.73;3.72;;;10.70;99.90;;;;;;5073869;28;20181;-82
2023/11/14 06:06:18;;;;;;;20.08;3.60;;;10.70;99.90;;;;;;5066993;28;20667;-83
2023/11/14 06:08:44;;;;;;;14.93;3.03;;;10.80;99.90;;;;;;5073775;28;20177;-83
2023/11/14 06:11:09;;;;;;;17.55;3.78;;;10.70;99.90;;;;;;5074974;28;20721;-82
2023/11/14 06:13:35;;;;;;;15.05;3.83;;;10.80;99.90;;;;;;5073619;28;20189;-83
2023/11/14 06:16:01;;;;;;;15.13;3.42;;;10.70;99.90;;;;;;5074755;28;20275;-82
2023/11/14 06:18:30;;;;;;;21.08;4.05;;;10.60;99.90;;;;;;5074391;28;20195;-84
2023/11/14 06:20:59;;;;;;;19.98;4.22;;;10.60;99.90;;;;;;5073889;28;20204;-83
2023/11/14 06:23:24;;;;;;;30.38;4.78;;;10.50;99.90;;;;;;5057302;28;20253;-83
2023/11/14 06:25:50;;;;;;;21.20;3.97;;;10.50;99.90;;;;;;5057851;28;20669;-83
2023/11/14 06:28:16;;;;;;;19.40;4.03;;;10.50;99.90;;;;;;5073555;28;20268;-81
2023/11/14 06:30:42;;;;;;;21.05;3.53;;;10.40;99.90;;;;;;5064807;28;20200;-83
2023/11/14 06:33:08;;;;;;;20.98;3.70;;;10.40;99.90;;;;;;5074269;28;20650;-82
2023/11/14 06:35:36;;;;;;;14.27;3.80;;;10.30;99.90;;;;;;5068849;28;20181;-81
2023/11/14 06:38:03;;;;;;;24.38;4.65;;;10.40;99.90;;;;;;5074801;28;20180;-84
2023/11/14 06:40:28;;;;;;;18.05;3.75;;;10.40;99.90;;;;;;5068224;28;20213;-82
2023/11/14 06:42:54;;;;;;;26.85;4.32;;;10.30;99.90;;;;;;5073431;28;20208;-80
2023/11/14 06:45:20;;;;;;;16.23;3.58;;;10.40;99.90;;;;;;5070606;28;20228;-82
2023/11/14 06:47:46;;;;;;;20.38;4.22;;;10.40;99.90;;;;;;5073940;28;20181;-84
2023/11/14 06:50:11;;;;;;;23.17;4.03;;;10.50;99.90;;;;;;5069796;28;20215;-82
2023/11/14 06:52:37;;;;;;;23.88;4.25;;;10.50;99.90;;;;;;5073911;28;20272;-86
2023/11/14 06:55:03;;;;;;;25.95;4.50;;;10.50;99.90;;;;;;5068431;28;20204;-84
2023/11/14 06:57:31;;;;;;;25.42;4.57;;;10.50;99.90;;;;;;5058571;28;20197;-80
2023/11/14 07:00:00;;;;;;;20.88;4.38;;;10.60;99.90;;;;;;5074492;28;20180;-83
2023/11/14 07:02:26;;;;;;;26.52;5.18;;;10.60;99.90;;;;;;5074277;28;20223;-83
2023/11/14 07:04:53;;;;;;;28.25;5.30;;;10.70;99.90;;;;;;5061202;28;20250;-83
2023/11/14 07:07:19;;;;;;;19.42;3.83;;;10.70;99.90;;;;;;5071870;28;20185;-84
2023/11/14 07:09:45;;;;;;;20.25;4.25;;;10.70;99.90;;;;;;5071887;28;20185;-83
2023/11/14 07:12:10;;;;;;;20.95;4.30;;;10.70;99.90;;;;;;5072585;28;20534;-83
2023/11/14 07:14:36;;;;;;;23.52;4.43;;;10.70;99.90;;;;;;5067070;28;20227;-81
2023/11/14 07:17:02;;;;;;;18.50;4.03;;;10.80;99.90;;;;;;5073756;28;20220;-85
2023/11/14 07:19:28;;;;;;;18.83;3.63;;;10.90;99.90;;;;;;5067441;28;20173;-84
2023/11/14 07:21:55;;;;;;;16.38;3.33;;;10.90;99.90;;;;;;5072912;28;20398;-84
2023/11/14 07:24:21;;;;;;;21.33;4.32;;;11.00;99.90;;;;;;5073781;28;20220;-86
2023/11/14 07:26:49;;;;;;;17.58;4.18;;;11.00;99.90;;;;;;5069277;28;20185;-86
2023/11/14 07:29:15;;;;;;;16.90;3.53;;;11.00;99.90;;;;;;5073908;28;20176;-86
2023/11/14 07:31:45;;;;;;;18.58;3.75;;;11.10;99.90;;;;;;5073902;28;20505;-85
2023/11/14 07:34:11;;;;;;;19.33;3.67;;;11.10;99.90;;;;;;5067321;28;20181;-84
2023/11/14 07:36:37;;;;;;;18.30;3.47;;;11.00;99.90;;;;;;5072369;28;20208;-86
2023/11/14 07:39:03;;;;;;;21.55;3.45;;;11.00;99.90;;;;;;5069967;28;20206;-81
2023/11/14 07:41:29;;;;;;;18.85;2.85;;;11.00;99.90;;;;;;5070886;28;20183;-83
2023/11/14 07:43:54;;;;;;;15.15;3.35;;;11.10;99.90;;;;;;5073726;28;20177;-84
2023/11/14 07:46:22;;;;;;;23.17;4.18;;;11.10;99.90;;;;;;5072562;28;20693;-85
2023/11/14 07:48:47;;;;;;;18.70;3.40;;;11.20;99.90;;;;;;5064066;28;20189;-85
2023/11/14 07:51:13;;;;;;;12.80;3.17;;;11.20;99.90;;;;;;5068160;28;20181;-85
2023/11/14 07:53:39;;;;;;;13.43;3.33;;;11.30;99.90;;;;;;5073589;28;20169;-84
2023/11/14 07:56:05;;;;;;;11.63;3.22;;;11.20;99.90;;;;;;5070307;28;20623;-85
2023/11/14 07:58:31;;;;;;;17.80;3.05;;;11.20;99.90;;;;;;5056971;28;20528;-82
2023/11/14 08:00:57;;;;;;;13.57;3.13;;;11.20;99.90;;;;;;5072405;28;20181;-85
2023/11/14 08:03:23;;;;;;;15.50;3.60;;;11.20;99.90;;;;;;5073512;28;20185;-81
2023/11/14 08:05:49;;;;;;;16.05;3.67;;;11.20;99.90;;;;;;5073540;28;20208;-82
2023/11/14 08:08:14;;;;;;;15.60;3.15;;;11.20;99.90;;;;;;5073608;28;20528;-80
2023/11/14 08:10:41;;;;;;;19.27;3.45;;;11.30;99.90;;;;;;5073200;28;20233;-82
2023/11/14 08:13:07;;;;;;;16.65;3.75;;;11.40;99.90;;;;;;5072249;28;20173;-81
2023/11/14 08:15:33;;;;;;;14.02;3.58;;;11.40;99.90;;;;;;5073513;28;20643;-83
2023/11/14 08:17:59;;;;;;;14.20;4.35;;;11.50;99.90;;;;;;5072258;28;20217;-84
2023/11/14 08:20:28;;;;;;;20.05;3.90;;;11.40;99.90;;;;;;5073435;28;20185;-86
2023/11/14 08:22:54;;;;;;;16.70;3.38;;;11.40;99.90;;;;;;5070911;28;20177;-84
2023/11/14 08:25:20;;;;;;;23.40;3.67;;;11.40;99.90;;;;;;5061699;28;20221;-85
2023/11/14 08:27:46;;;;;;;19.42;3.80;;;11.40;99.90;;;;;;5071659;28;20181;-85
2023/11/14 08:30:13;;;;;;;21.58;3.50;;;11.40;99.90;;;;;;5072493;28;20276;-85
2023/11/14 08:32:42;;;;;;;21.25;4.20;;;11.40;99.90;;;;;;5068781;28;20208;-84
2023/11/14 08:35:09;;;;;;;21.15;4.30;;;11.40;99.90;;;;;;5073214;28;20227;-85
2023/11/14 08:37:36;;;;;;;22.95;4.07;;;11.50;99.90;;;;;;5072489;28;20189;-85
2023/11/14 08:40:03;;;;;;;19.52;3.72;;;11.50;99.90;;;;;;5075936;28;20181;-82
2023/11/14 08:42:29;;;;;;;13.90;3.88;;;11.60;99.90;;;;;;5060526;28;20190;-85
2023/11/14 08:44:58;;;;;;;22.10;4.22;;;11.60;99.90;;;;;;5075566;28;20274;-84
2023/11/14 08:47:23;;;;;;;15.10;3.58;;;11.50;99.90;;;;;;5058744;28;20179;-84
2023/11/14 08:49:50;;;;;;;23.80;4.53;;;11.50;99.90;;;;;;5059131;28;20246;-83
2023/11/14 08:52:16;;;;;;;20.85;3.58;;;11.50;99.90;;;;;;5075755;28;20208;-85
2023/11/14 08:54:42;;;;;;;19.00;4.10;;;11.60;99.90;;;;;;5075423;28;20616;-83
2023/11/14 08:57:08;;;;;;;19.60;3.97;;;11.70;99.90;;;;;;5075334;28;20561;-85
2023/11/14 08:59:34;;;;;;;20.42;3.78;;;11.80;99.90;;;;;;5073523;28;20260;-85
2023/11/14 09:02:00;;;;;;;20.23;4.05;;;11.80;99.90;;;;;;5076545;28;20181;-83
2023/11/14 09:04:26;;;;;;;19.30;3.70;;;11.90;99.90;;;;;;5076536;28;20219;-84
2023/11/14 09:06:52;;;;;;;20.42;4.35;;;12.00;99.90;;;;;;5076660;28;20208;-83
2023/11/14 09:09:20;;;;;;;18.50;3.92;;;12.00;99.90;;;;;;5075255;28;20193;-83
2023/11/14 09:11:47;;;;;;;24.20;4.18;;;12.10;99.90;;;;;;5076796;28;20589;-85
2023/11/14 09:14:13;;;;;;;23.45;3.85;;;12.20;99.90;;;;;;5075233;28;20619;-85
2023/11/14 09:16:40;;;;;;;18.98;3.60;;;12.30;99.90;;;;;;5076319;28;20185;-85
2023/11/14 09:19:06;;;;;;;20.35;3.53;;;12.30;99.90;;;;;;5074993;28;20223;-84
2023/11/14 09:21:33;;;;;;;21.10;3.97;;;12.30;99.90;;;;;;5065632;28;20181;-84
2023/11/14 09:23:59;;;;;;;17.70;4.00;;;12.20;99.90;;;;;;5074581;28;20319;-85
2023/11/14 09:26:25;;;;;;;17.05;3.72;;;12.20;99.90;;;;;;5058651;28;20556;-85
2023/11/14 09:28:51;;;;;;;20.35;4.00;;;12.20;99.90;;;;;;5076209;28;20177;-83
2023/11/14 09:31:17;;;;;;;25.40;3.92;;;12.10;99.90;;;;;;5075970;28;20189;-85
2023/11/14 09:33:43;;;;;;;19.67;3.85;;;12.00;99.90;;;;;;5076056;28;20174;-85
2023/11/14 09:36:09;;;;;;;18.88;3.70;;;12.10;99.90;;;;;;5074739;28;20197;-85
2023/11/14 09:38:35;;;;;;;19.38;3.90;;;12.20;99.90;;;;;;5074606;28;20190;-82
2023/11/14 09:41:02;;;;;;;23.48;4.82;;;12.30;99.90;;;;;;5074655;28;20250;-85
2023/11/14 09:43:29;;;;;;;21.20;3.60;;;12.30;99.90;;;;;;5067401;28;20176;-85
2023/11/14 09:45:57;;;;;;;19.27;4.10;;;12.30;99.90;;;;;;5065652;28;20237;-84
2023/11/14 09:48:23;;;;;;;18.50;4.13;;;12.30;99.90;;;;;;5067005;28;20207;-84
2023/11/14 09:50:55;;;;;;;22.15;4.43;;;12.20;99.90;;;;;;5065564;28;20189;-84
2023/11/14 09:53:27;;;;;;;18.38;4.10;;;12.10;99.90;;;;;;5075574;28;20181;-84
2023/11/14 09:55:53;;;;;;;18.80;4.32;;;11.80;99.90;;;;;;5059665;28;20492;-84
2023/11/14 09:58:22;;;;;;;16.83;4.15;;;11.50;99.90;;;;;;5075286;28;20561;-82
2023/11/14 10:00:49;;;;;;;20.25;4.55;;;11.40;99.90;;;;;;5055301;28;20174;-82
2023/11/14 13:33:57;;;;;;;14.48;2.85;;;12.80;99.90;;;;;;5091450;23;20705;-81
2023/11/14 13:36:25;;;;;;;16.10;2.72;;;12.80;99.90;;;;;;4899813;29;20214;-79
2023/11/14 13:38:50;;;;;;;9.02;2.38;;;12.70;99.90;;;;;;4912987;29;20233;-84
2023/11/14 13:41:16;;;;;;;11.70;2.53;;;12.50;99.90;;;;;;4908985;29;20183;-83
2023/11/14 13:43:42;;;;;;;13.02;2.58;;;12.30;99.90;;;;;;4900741;29;20230;-80
2023/11/14 13:46:10;;;;;;;10.57;2.05;;;12.20;99.90;;;;;;4925074;29;20221;-78
2023/11/14 13:48:35;;;;;;;10.02;2.22;;;12.10;99.90;;;;;;4938661;29;20214;-81
2023/11/14 13:51:02;;;;;;;8.48;1.90;;;12.10;99.90;;;;;;4923226;29;20221;-79
2023/11/14 13:53:28;;;;;;;10.82;2.63;;;12.10;99.90;;;;;;4919890;29;20269;-79
2023/11/14 13:55:57;;;;;;;12.35;2.67;;;12.10;99.90;;;;;;4921370;29;20577;-83
2023/11/14 13:58:23;;;;;;;10.25;2.50;;;12.10;99.90;;;;;;4922522;29;20269;-88
2023/11/14 14:00:51;;;;;;;12.18;2.75;;;12.10;99.90;;;;;;4938836;29;20664;-83
2023/11/14 14:03:20;;;;;;;12.25;2.35;;;12.10;99.90;;;;;;4938181;29;20186;-81
2023/11/14 14:05:48;;;;;;;12.40;2.60;;;12.10;99.90;;;;;;4921583;29;20632;-84
2023/11/14 14:08:14;;;;;;;13.07;2.78;;;12.00;99.90;;;;;;4926534;29;20224;-86
2023/11/14 14:10:43;;;;;;;15.23;3.20;;;12.00;99.90;;;;;;4930988;29;20260;-78
2023/11/14 14:13:10;;;;;;;12.25;2.28;;;11.90;99.90;;;;;;4929561;29;20177;-84
2023/11/14 14:15:36;;;;;;;12.32;2.78;;;11.90;99.90;;;;;;4922565;29;20668;-83
2023/11/14 14:18:02;;;;;;;16.85;2.83;;;11.90;99.90;;;;;;4924838;29;20268;-81
2023/11/14 14:20:29;;;;;;;15.02;3.45;;;11.80;99.90;;;;;;4933165;29;20177;-84
2023/11/14 14:22:55;;;;;;;14.05;3.03;;;11.70;99.90;;;;;;4910123;29;20194;-78
2023/11/14 14:25:23;;;;;;;15.27;3.08;;;11.70;99.90;;;;;;4937631;29;20214;-79
2023/11/14 14:27:49;;;;;;;16.45;3.17;;;11.70;99.90;;;;;;4934732;29;20636;-85
2023/11/14 14:30:14;;;;;;;16.38;3.13;;;11.70;99.90;;;;;;4933171;29;20254;-82
2023/11/14 14:32:41;;;;;;;14.77;2.90;;;11.70;99.90;;;;;;4937058;29;20229;-80
2023/11/14 14:35:17;;;;;;;12.02;2.97;;;11.70;99.90;;;;;;4928563;29;20628;-80
2023/11/14 14:37:44;;;;;;;16.15;3.40;;;11.70;99.90;;;;;;4920279;29;20190;-80
2023/11/14 14:40:12;;;;;;;16.35;3.05;;;11.70;99.90;;;;;;4934521;29;20187;-80
2023/11/14 14:42:39;;;;;;;19.15;3.60;;;11.70;99.90;;;;;;4937752;29;20189;-83
2023/11/14 14:45:08;;;;;;;18.20;4.05;;;11.70;99.90;;;;;;4909994;29;20215;-80
2023/11/14 14:47:36;;;;;;;16.55;3.42;;;11.60;99.90;;;;;;4932849;29;20202;-86
2023/11/14 14:50:06;;;;;;;17.40;4.07;;;11.60;99.90;;;;;;4937614;29;20182;-81
2023/11/14 14:52:33;;;;;;;16.92;3.97;;;11.60;99.90;;;;;;4937272;29;20269;-81
2023/11/14 14:55:00;;;;;;;17.55;3.63;;;11.60;99.90;;;;;;4935987;29;20684;-79
2023/11/14 14:57:27;;;;;;;16.73;3.72;;;11.60;99.90;;;;;;4937316;29;20200;-80
2023/11/14 14:59:53;;;;;;;15.57;4.00;;;11.60;99.90;;;;;;4937741;29;20185;-80
2023/11/14 15:02:24;;;;;;;16.85;3.60;;;11.60;99.90;;;;;;4904503;29;20201;-82
2023/11/14 15:04:50;;;;;;;15.80;4.20;;;11.50;99.90;;;;;;4936946;29;20212;-80
2023/11/14 15:07:17;;;;;;;20.55;3.50;;;11.60;99.90;;;;;;4919996;29;20193;-82
2023/11/14 15:09:45;;;;;;;15.40;3.65;;;11.60;99.90;;;;;;4919689;29;20277;-78
2023/11/14 15:12:12;;;;;;;17.83;3.63;;;11.60;99.90;;;;;;4919943;29;20289;-79
2023/11/14 15:14:39;;;;;;;20.10;4.22;;;11.50;99.90;;;;;;4937116;29;20205;-79
2023/11/14 15:17:10;;;;;;;24.40;4.13;;;11.50;99.90;;;;;;4926908;29;20194;-80
2023/11/14 15:19:36;;;;;;;20.80;4.05;;;11.50;99.90;;;;;;4933372;29;20186;-80
2023/11/14 15:22:02;;;;;;;21.77;4.28;;;11.50;99.90;;;;;;4937129;29;20184;-79
2023/11/14 15:24:27;;;;;;;20.25;4.25;;;11.50;99.90;;;;;;4926071;29;20177;-80
2023/11/14 15:26:53;;;;;;;22.50;4.45;;;11.50;99.90;;;;;;4936450;29;20197;-79
2023/11/14 15:29:19;;;;;;;24.63;4.22;;;11.50;99.90;;;;;;4937006;29;20189;-82
2023/11/14 15:31:45;;;;;;;16.48;3.92;;;11.60;99.90;;;;;;4916098;29;20198;-79
2023/11/14 15:34:12;;;;;;;20.98;3.97;;;11.60;99.90;;;;;;4926246;29;20613;-79
2023/11/14 15:36:39;;;;;;;16.17;3.90;;;11.60;99.90;;;;;;4935967;29;20189;-88
2023/11/14 15:39:08;;;;;;;18.98;3.85;;;11.60;99.90;;;;;;4914353;29;20202;-84
2023/11/14 15:41:37;;;;;;;24.65;3.90;;;11.60;99.90;;;;;;4925927;29;20523;-84
2023/11/14 15:44:04;;;;;;;17.75;3.83;;;11.70;99.90;;;;;;4927021;29;20701;-79
2023/11/14 15:46:34;;;;;;;11.75;3.53;;;11.70;99.90;;;;;;4897842;29;20630;-80
2023/11/14 15:49:00;;;;;;;26.35;4.45;;;11.70;99.90;;;;;;4918867;29;20286;-83
2023/11/14 15:51:26;;;;;;;22.00;4.32;;;11.70;99.90;;;;;;4936666;29;20194;-83
2023/11/14 15:53:52;;;;;;;22.13;4.22;;;11.60;99.90;;;;;;4929183;29;20190;-79
2023/11/14 15:56:19;;;;;;;17.92;4.90;;;11.60;99.90;;;;;;4929358;29;20190;-81
2023/11/14 15:58:46;;;;;;;17.25;3.67;;;11.60;99.90;;;;;;4917871;29;20945;-80
2023/11/14 16:01:13;;;;;;;24.38;3.75;;;11.70;99.90;;;;;;4935635;29;20185;-78
2023/11/14 16:03:39;;;;;;;18.58;3.25;;;11.70;99.90;;;;;;4918519;29;20336;-80
2023/11/14 16:06:07;;;;;;;13.75;3.33;;;11.60;99.90;;;;;;4918539;29;20304;-79